Time;durP1;ratioP1;P1;durP2;ratioP2;P2;SDS_P1;SDS_P2;PMS_P1;PMS_P2;Temp;Humidity;BMP_temperature;BMP_pressure;BME280_temperature;BME280_humidity;BME280_pressure;Samples;Min_cycle;Max_cycle;Signal;HPM_P1;HPM_P2
2022/03/03 00:00:26;;;;;;;56.85;35.72;;;2.30;99.90;;;;;;5064602;28;20044;-66
2022/03/03 00:02:51;;;;;;;55.20;35.97;;;2.30;99.90;;;;;;5097363;28;20045;-66
2022/03/03 00:05:17;;;;;;;53.75;35.35;;;2.20;99.90;;;;;;5073425;28;20130;-67
2022/03/03 00:07:43;;;;;;;49.83;32.97;;;2.30;99.90;;;;;;5086959;28;20970;-67
2022/03/03 00:10:09;;;;;;;55.53;34.38;;;2.30;99.90;;;;;;5071084;28;20113;-67
2022/03/03 00:12:35;;;;;;;52.08;34.40;;;2.20;99.90;;;;;;5071843;28;20177;-67
2022/03/03 00:15:01;;;;;;;55.67;33.13;;;2.30;99.90;;;;;;5072235;28;20059;-67
2022/03/03 00:17:27;;;;;;;48.88;33.67;;;2.30;99.90;;;;;;5068381;28;20614;-67
2022/03/03 00:19:53;;;;;;;51.40;34.58;;;2.20;99.90;;;;;;5067210;28;20048;-66
2022/03/03 00:22:19;;;;;;;52.33;33.40;;;2.20;99.90;;;;;;5067372;28;20051;-66
2022/03/03 00:24:45;;;;;;;48.00;33.22;;;2.20;99.90;;;;;;5068914;28;20041;-66
2022/03/03 00:27:11;;;;;;;49.33;32.58;;;2.20;99.90;;;;;;5100242;28;20032;-66
2022/03/03 00:29:36;;;;;;;50.85;32.78;;;2.30;99.90;;;;;;5081972;28;20068;-66
2022/03/03 00:32:06;;;;;;;52.45;34.10;;;2.20;99.90;;;;;;5069143;28;20520;-67
2022/03/03 00:34:31;;;;;;;49.05;31.25;;;2.20;99.90;;;;;;5070547;28;20044;-67
2022/03/03 00:36:57;;;;;;;50.28;33.92;;;2.20;99.90;;;;;;5068709;28;20043;-67
2022/03/03 00:39:23;;;;;;;49.92;32.65;;;2.10;99.90;;;;;;5074311;28;20052;-67
2022/03/03 00:41:48;;;;;;;48.40;33.05;;;2.20;99.90;;;;;;5069031;28;20139;-67
2022/03/03 00:44:14;;;;;;;51.03;31.95;;;2.20;99.90;;;;;;5070024;28;20040;-67
2022/03/03 00:46:39;;;;;;;47.88;31.65;;;2.10;99.90;;;;;;5073598;28;20052;-67
2022/03/03 00:49:06;;;;;;;48.75;33.08;;;2.10;99.90;;;;;;5067951;28;20044;-67
2022/03/03 00:51:32;;;;;;;47.63;32.60;;;2.10;99.90;;;;;;5071586;28;20474;-66
2022/03/03 00:53:58;;;;;;;40.63;28.13;;;2.10;99.90;;;;;;5069864;28;20048;-67
2022/03/03 00:56:24;;;;;;;40.60;26.33;;;2.10;99.90;;;;;;5070185;28;20049;-66
2022/03/03 00:58:50;;;;;;;41.75;29.35;;;2.00;99.90;;;;;;5072312;28;20040;-66
2022/03/03 01:01:16;;;;;;;46.33;30.55;;;2.00;99.90;;;;;;5065539;28;20048;-66
2022/03/03 01:03:42;;;;;;;43.33;28.50;;;1.90;99.90;;;;;;5071644;28;20078;-66
2022/03/03 01:06:09;;;;;;;41.20;29.27;;;1.90;99.90;;;;;;5069816;28;20052;-66
2022/03/03 01:08:35;;;;;;;49.17;31.30;;;1.90;99.90;;;;;;5072752;28;20414;-66
2022/03/03 01:11:01;;;;;;;48.55;31.15;;;1.90;99.90;;;;;;5072022;28;20033;-66
2022/03/03 01:13:26;;;;;;;46.95;30.88;;;1.80;99.90;;;;;;5080177;28;20044;-66
2022/03/03 01:15:53;;;;;;;45.53;30.45;;;1.80;99.90;;;;;;5067741;28;20042;-66
2022/03/03 01:18:20;;;;;;;49.38;31.38;;;1.80;99.90;;;;;;5068136;28;20044;-67
2022/03/03 01:20:46;;;;;;;41.22;28.65;;;1.80;99.90;;;;;;5071403;28;20661;-66
2022/03/03 01:23:11;;;;;;;44.35;29.38;;;1.70;99.90;;;;;;5070411;28;20111;-66
2022/03/03 01:25:37;;;;;;;42.47;28.65;;;1.80;99.90;;;;;;5071575;28;20040;-66
2022/03/03 01:28:03;;;;;;;39.75;27.35;;;1.70;99.90;;;;;;5067423;28;20043;-66
2022/03/03 01:30:29;;;;;;;44.85;29.20;;;1.60;99.90;;;;;;5064678;28;20048;-66
2022/03/03 01:32:55;;;;;;;46.33;30.05;;;1.60;99.90;;;;;;5069787;28;20039;-66
2022/03/03 01:35:21;;;;;;;44.40;29.92;;;1.50;99.90;;;;;;5064223;28;20045;-66
2022/03/03 01:37:46;;;;;;;45.53;28.63;;;1.40;99.90;;;;;;5068886;28;20104;-66
2022/03/03 01:40:12;;;;;;;41.35;28.17;;;1.40;99.90;;;;;;5064330;28;20040;-66
2022/03/03 01:42:38;;;;;;;44.90;29.15;;;1.30;99.90;;;;;;5088635;28;20059;-66
2022/03/03 01:45:05;;;;;;;42.63;27.13;;;1.30;99.90;;;;;;5067637;28;20044;-66
2022/03/03 01:47:30;;;;;;;39.85;28.73;;;1.20;99.90;;;;;;5069500;28;20543;-66
2022/03/03 01:49:57;;;;;;;43.33;28.50;;;1.20;99.90;;;;;;5096155;28;20043;-66
2022/03/03 01:52:24;;;;;;;46.97;30.42;;;1.10;99.90;;;;;;5066637;28;20519;-66
2022/03/03 01:54:50;;;;;;;41.80;28.33;;;1.10;99.90;;;;;;5066249;28;20067;-66
2022/03/03 01:57:17;;;;;;;53.47;33.20;;;1.00;99.90;;;;;;5067371;28;20472;-66
2022/03/03 01:59:43;;;;;;;49.10;32.65;;;1.00;99.90;;;;;;5067995;28;20127;-66
2022/03/03 02:02:10;;;;;;;49.50;32.33;;;1.00;99.90;;;;;;5065990;28;20132;-66
2022/03/03 02:04:38;;;;;;;49.67;33.20;;;1.20;99.90;;;;;;5068734;28;20056;-66
2022/03/03 02:07:04;;;;;;;52.15;32.83;;;1.00;99.90;;;;;;5069088;28;20040;-66
2022/03/03 02:09:30;;;;;;;47.08;31.00;;;1.00;99.90;;;;;;5066135;28;20048;-66
2022/03/03 02:11:56;;;;;;;49.75;31.15;;;0.90;99.90;;;;;;5063613;28;20032;-66
2022/03/03 02:14:22;;;;;;;51.97;31.25;;;0.90;99.90;;;;;;5067376;28;20037;-66
2022/03/03 02:16:48;;;;;;;49.47;32.35;;;0.90;99.90;;;;;;5071560;28;20038;-66
2022/03/03 02:19:20;;;;;;;48.05;31.42;;;0.90;99.90;;;;;;5065033;28;20072;-66
2022/03/03 02:21:48;;;;;;;52.20;32.22;;;0.90;99.90;;;;;;5067774;28;20043;-66
2022/03/03 02:24:14;;;;;;;46.78;31.95;;;0.80;99.90;;;;;;5097004;28;20488;-66
2022/03/03 02:26:41;;;;;;;49.83;31.80;;;0.80;99.90;;;;;;5066331;28;20095;-66
2022/03/03 02:29:07;;;;;;;51.13;31.85;;;0.80;99.90;;;;;;5070327;28;20044;-66
2022/03/03 02:31:32;;;;;;;53.42;33.67;;;0.80;99.90;;;;;;5066686;28;20127;-66
2022/03/03 02:33:58;;;;;;;50.63;32.22;;;0.80;99.90;;;;;;5067027;28;20028;-66
2022/03/03 02:36:27;;;;;;;50.30;31.95;;;1.00;99.90;;;;;;5066806;28;20041;-66
2022/03/03 02:38:55;;;;;;;50.97;33.67;;;0.80;99.90;;;;;;5065761;28;20051;-66
2022/03/03 02:41:21;;;;;;;52.72;33.40;;;0.80;99.90;;;;;;5067244;28;20056;-66
2022/03/03 02:43:47;;;;;;;50.35;33.72;;;0.80;99.90;;;;;;5052387;28;20063;-66
2022/03/03 02:46:13;;;;;;;49.90;32.45;;;0.70;99.90;;;;;;5067136;28;20093;-66
2022/03/03 02:48:39;;;;;;;54.38;34.22;;;0.80;99.90;;;;;;5067380;28;20051;-66
2022/03/03 02:51:06;;;;;;;48.80;32.95;;;0.80;99.90;;;;;;5071698;28;20043;-66
2022/03/03 02:53:31;;;;;;;54.63;34.47;;;0.80;99.90;;;;;;5067000;28;20032;-66
2022/03/03 02:55:57;;;;;;;52.53;33.47;;;0.80;99.90;;;;;;5069866;28;20047;-66
2022/03/03 02:58:23;;;;;;;51.20;33.10;;;0.80;99.90;;;;;;5068099;28;20528;-66
2022/03/03 03:00:48;;;;;;;51.33;33.00;;;0.80;99.90;;;;;;5067847;28;20044;-66
2022/03/03 03:03:16;;;;;;;57.58;33.42;;;0.70;99.90;;;;;;5071889;28;20039;-66
2022/03/03 03:05:42;;;;;;;49.65;31.52;;;0.70;99.90;;;;;;5067832;28;20040;-66
2022/03/03 03:08:09;;;;;;;55.60;33.00;;;0.80;99.90;;;;;;5068079;28;20095;-66
2022/03/03 03:10:35;;;;;;;51.53;33.50;;;0.70;99.90;;;;;;5068835;28;20040;-66
2022/03/03 03:13:01;;;;;;;57.55;33.22;;;0.70;99.90;;;;;;5070573;28;20033;-66
2022/03/03 03:15:26;;;;;;;53.90;33.45;;;0.60;99.90;;;;;;5067832;28;20484;-66
2022/03/03 03:17:52;;;;;;;53.17;34.15;;;0.70;99.90;;;;;;5069728;28;20036;-66
2022/03/03 03:20:18;;;;;;;51.35;32.50;;;0.60;99.90;;;;;;5070178;28;20040;-66
2022/03/03 03:22:43;;;;;;;52.55;33.35;;;0.50;99.90;;;;;;5067728;28;20043;-66
2022/03/03 03:25:11;;;;;;;51.70;33.42;;;0.60;99.90;;;;;;5066799;28;20407;-66
2022/03/03 03:27:38;;;;;;;53.17;33.90;;;0.50;99.90;;;;;;5065378;28;20033;-66
2022/03/03 03:30:06;;;;;;;54.90;34.78;;;0.50;99.90;;;;;;5067065;28;20886;-66
2022/03/03 03:32:32;;;;;;;55.72;33.88;;;0.40;99.90;;;;;;5064140;28;20040;-67
2022/03/03 03:34:58;;;;;;;49.72;32.85;;;0.40;99.90;;;;;;5073306;28;20043;-67
2022/03/03 03:37:23;;;;;;;53.00;31.55;;;0.50;99.90;;;;;;5069132;28;20049;-66
2022/03/03 03:39:49;;;;;;;52.28;33.63;;;0.50;99.90;;;;;;5066971;28;20485;-66
2022/03/03 03:42:14;;;;;;;54.00;33.55;;;0.60;99.90;;;;;;5072861;28;20040;-66
2022/03/03 03:44:40;;;;;;;49.35;32.67;;;0.30;99.90;;;;;;5073501;28;20032;-66
2022/03/03 03:47:06;;;;;;;54.08;34.85;;;0.40;99.90;;;;;;5101587;28;20059;-66
2022/03/03 03:49:33;;;;;;;51.72;34.05;;;0.30;99.90;;;;;;5071718;28;20044;-66
2022/03/03 03:51:59;;;;;;;52.90;33.75;;;0.30;99.90;;;;;;5072941;28;20045;-67
2022/03/03 03:54:25;;;;;;;53.28;34.67;;;0.30;99.90;;;;;;5072340;28;20067;-66
2022/03/03 03:56:50;;;;;;;49.38;33.05;;;0.30;99.90;;;;;;5071766;28;20475;-66
2022/03/03 03:59:16;;;;;;;49.80;31.52;;;0.30;99.90;;;;;;5073956;28;20043;-66
2022/03/03 04:01:41;;;;;;;49.05;30.55;;;0.40;99.90;;;;;;5071402;28;20391;-66
2022/03/03 04:04:07;;;;;;;53.35;33.10;;;0.40;99.90;;;;;;5073337;28;20039;-67
2022/03/03 04:06:32;;;;;;;52.70;32.17;;;0.50;99.90;;;;;;5070961;28;20070;-66
2022/03/03 04:08:58;;;;;;;46.13;31.42;;;0.50;99.90;;;;;;5072908;28;20044;-66
2022/03/03 04:11:26;;;;;;;45.50;31.30;;;0.50;99.90;;;;;;5075765;28;20032;-66
2022/03/03 04:13:52;;;;;;;46.20;31.02;;;0.60;99.90;;;;;;5070494;28;20131;-66
2022/03/03 04:16:18;;;;;;;50.10;31.58;;;0.60;99.90;;;;;;5073297;28;20461;-66
2022/03/03 04:18:43;;;;;;;44.95;30.73;;;0.60;99.90;;;;;;5073254;28;20041;-66
2022/03/03 04:21:09;;;;;;;48.10;31.10;;;0.60;99.90;;;;;;5072390;28;20087;-67
2022/03/03 04:23:35;;;;;;;46.60;30.75;;;0.70;99.90;;;;;;5070645;28;20129;-67
2022/03/03 04:26:00;;;;;;;50.75;31.27;;;0.70;99.90;;;;;;5073543;28;20040;-67
2022/03/03 04:28:26;;;;;;;42.17;29.70;;;0.70;99.90;;;;;;5071096;28;20045;-67
2022/03/03 04:30:51;;;;;;;45.35;30.92;;;0.70;99.90;;;;;;5070085;28;20040;-66
2022/03/03 04:33:17;;;;;;;44.38;29.08;;;0.70;99.90;;;;;;5068903;28;20532;-67
2022/03/03 04:35:42;;;;;;;44.72;29.27;;;0.70;99.90;;;;;;5072314;28;20063;-67
2022/03/03 04:38:08;;;;;;;44.38;28.05;;;0.70;99.90;;;;;;5071506;28;20051;-66
2022/03/03 04:40:34;;;;;;;41.95;27.25;;;0.70;99.90;;;;;;5071250;28;20086;-66
2022/03/03 04:42:59;;;;;;;43.10;27.00;;;0.70;99.90;;;;;;5071194;28;20044;-66
2022/03/03 04:45:25;;;;;;;38.88;28.13;;;0.70;99.90;;;;;;5066828;28;20055;-67
2022/03/03 04:47:51;;;;;;;36.58;25.77;;;0.90;99.90;;;;;;5070244;28;20040;-67
2022/03/03 04:50:17;;;;;;;43.10;27.35;;;0.80;99.90;;;;;;5069446;28;20041;-66
2022/03/03 04:52:43;;;;;;;35.15;24.85;;;0.80;99.90;;;;;;5072303;28;20044;-66
2022/03/03 04:55:09;;;;;;;38.20;26.55;;;0.90;99.90;;;;;;5069141;28;20376;-66
2022/03/03 04:57:35;;;;;;;38.97;26.23;;;0.90;99.90;;;;;;5069667;28;20471;-66
2022/03/03 05:00:00;;;;;;;36.17;24.83;;;0.90;99.90;;;;;;5069722;28;20118;-66
2022/03/03 05:02:26;;;;;;;37.83;25.38;;;0.90;99.90;;;;;;5069899;28;20450;-66
2022/03/03 05:04:53;;;;;;;34.28;25.23;;;0.90;99.90;;;;;;5101235;28;20071;-66
2022/03/03 05:07:19;;;;;;;41.83;26.42;;;1.20;99.90;;;;;;5072178;28;20048;-66
2022/03/03 05:09:44;;;;;;;39.65;27.10;;;0.90;99.90;;;;;;5068820;28;20056;-66
2022/03/03 05:12:10;;;;;;;38.90;25.02;;;1.00;99.90;;;;;;5070448;28;20037;-67
2022/03/03 05:14:36;;;;;;;37.10;24.42;;;1.00;99.90;;;;;;5066741;28;20123;-67
2022/03/03 05:17:02;;;;;;;37.85;24.60;;;1.00;99.90;;;;;;5071704;28;20040;-67
2022/03/03 05:19:28;;;;;;;38.92;24.38;;;1.00;99.90;;;;;;5069738;28;20138;-67
2022/03/03 05:21:54;;;;;;;33.28;24.10;;;1.00;99.90;;;;;;5066208;28;20040;-67
2022/03/03 05:24:22;;;;;;;31.20;22.38;;;1.10;99.90;;;;;;5071283;28;20045;-67
2022/03/03 05:26:47;;;;;;;32.88;23.02;;;1.10;99.90;;;;;;5068404;28;20119;-66
2022/03/03 05:29:13;;;;;;;38.45;24.02;;;1.10;99.90;;;;;;5069231;28;20177;-66
2022/03/03 05:31:39;;;;;;;34.50;22.73;;;1.20;99.90;;;;;;5067432;28;20044;-66
2022/03/03 05:34:04;;;;;;;36.35;23.13;;;1.20;99.90;;;;;;5070316;28;20060;-66
2022/03/03 05:36:30;;;;;;;32.53;23.08;;;1.50;99.90;;;;;;5098422;27;20037;-67
2022/03/03 05:38:58;;;;;;;33.63;23.08;;;1.20;99.90;;;;;;5066141;28;20070;-66
2022/03/03 05:41:24;;;;;;;36.63;24.35;;;1.20;99.90;;;;;;5066496;28;20124;-67
2022/03/03 05:43:50;;;;;;;33.30;23.63;;;1.20;99.90;;;;;;5069779;28;20033;-67
2022/03/03 05:46:16;;;;;;;35.22;24.27;;;1.20;99.90;;;;;;5070354;28;20083;-67
2022/03/03 05:48:42;;;;;;;33.20;23.83;;;1.10;99.90;;;;;;5069638;28;20511;-67
2022/03/03 05:51:08;;;;;;;34.35;24.30;;;1.10;99.90;;;;;;5068808;28;20040;-67
2022/03/03 05:53:34;;;;;;;33.85;23.65;;;1.10;99.90;;;;;;5066410;28;20056;-66
2022/03/03 05:56:06;;;;;;;37.03;24.27;;;1.20;99.90;;;;;;5071746;28;20067;-66
2022/03/03 05:58:44;;;;;;;33.28;23.95;;;1.20;99.90;;;;;;5069286;28;20123;-67
2022/03/03 06:01:11;;;;;;;35.05;23.67;;;1.10;99.90;;;;;;5065939;28;20032;-67
2022/03/03 06:03:37;;;;;;;30.95;22.48;;;1.00;99.90;;;;;;5067780;28;20040;-67
2022/03/03 06:06:15;;;;;;;34.97;23.63;;;1.00;99.90;;;;;;5068903;28;20411;-67
2022/03/03 06:08:49;;;;;;;32.80;20.95;;;0.90;99.90;;;;;;5068138;28;20044;-66
2022/03/03 06:11:20;;;;;;;34.35;22.77;;;0.90;99.90;;;;;;5069932;28;20044;-66
2022/03/03 06:13:47;;;;;;;31.63;23.80;;;1.00;99.90;;;;;;5067856;28;20085;-67
2022/03/03 06:16:20;;;;;;;32.92;22.92;;;0.80;99.90;;;;;;5083034;28;20518;-66
2022/03/03 06:18:47;;;;;;;33.13;23.02;;;0.90;99.90;;;;;;5065825;28;20036;-67
2022/03/03 06:21:14;;;;;;;33.00;23.95;;;0.80;99.90;;;;;;5074089;28;20036;-66
2022/03/03 06:23:39;;;;;;;30.60;22.52;;;0.80;99.90;;;;;;5067414;28;20519;-67
2022/03/03 06:26:08;;;;;;;33.78;21.98;;;0.80;99.90;;;;;;5066799;28;20071;-67
2022/03/03 06:28:35;;;;;;;37.53;24.52;;;0.80;99.90;;;;;;5095270;28;20109;-67
2022/03/03 06:31:00;;;;;;;34.38;23.67;;;0.80;99.90;;;;;;5067208;28;20047;-67
2022/03/03 06:33:26;;;;;;;31.90;22.55;;;0.90;99.90;;;;;;5069570;28;20037;-67
2022/03/03 06:35:53;;;;;;;33.05;23.27;;;0.70;99.90;;;;;;5067767;28;20041;-67
2022/03/03 06:38:19;;;;;;;32.05;22.88;;;0.70;99.90;;;;;;5068476;28;20116;-67
2022/03/03 06:40:45;;;;;;;37.70;23.35;;;0.70;99.90;;;;;;5066884;28;20158;-67
2022/03/03 06:43:10;;;;;;;34.65;22.73;;;0.80;99.90;;;;;;5064055;28;20043;-67
2022/03/03 06:45:36;;;;;;;38.70;24.88;;;0.90;99.90;;;;;;5062736;28;20049;-67
2022/03/03 06:48:04;;;;;;;32.03;22.20;;;1.00;99.90;;;;;;5065797;28;20699;-67
2022/03/03 06:50:30;;;;;;;34.90;22.92;;;1.00;99.90;;;;;;5092197;28;20040;-67
2022/03/03 06:52:56;;;;;;;35.63;23.80;;;1.10;99.90;;;;;;5066012;28;20067;-67
2022/03/03 06:55:26;;;;;;;34.95;24.13;;;1.10;99.90;;;;;;5064544;28;20044;-67
2022/03/03 06:57:57;;;;;;;36.70;23.52;;;1.20;99.90;;;;;;5067191;28;20040;-68
2022/03/03 07:00:26;;;;;;;33.65;23.52;;;1.30;99.90;;;;;;5069441;28;20425;-67
2022/03/03 07:02:52;;;;;;;33.22;22.77;;;1.30;99.90;;;;;;5066044;28;20063;-68
2022/03/03 07:05:19;;;;;;;32.70;22.75;;;1.40;99.90;;;;;;5095311;28;20052;-68
2022/03/03 07:07:49;;;;;;;33.00;22.95;;;1.50;99.90;;;;;;5058764;28;20048;-68
2022/03/03 07:10:23;;;;;;;35.05;23.30;;;1.50;99.90;;;;;;5065091;28;20044;-68
2022/03/03 07:12:51;;;;;;;37.50;23.73;;;1.60;99.90;;;;;;5066017;28;20119;-68
2022/03/03 07:15:16;;;;;;;32.08;21.20;;;1.80;99.90;;;;;;5071072;28;20044;-69
2022/03/03 07:17:48;;;;;;;33.92;22.35;;;1.80;99.90;;;;;;5068546;28;20024;-68
2022/03/03 07:20:37;;;;;;;31.63;22.52;;;1.90;99.90;;;;;;5069716;28;20491;-68
2022/03/03 07:23:04;;;;;;;32.55;22.15;;;1.90;99.90;;;;;;5067576;28;20044;-68
2022/03/03 07:25:43;;;;;;;28.30;20.33;;;1.90;99.90;;;;;;5071427;28;20158;-68
2022/03/03 07:28:11;;;;;;;29.85;22.35;;;1.90;99.90;;;;;;5070551;28;20115;-68
2022/03/03 07:30:41;;;;;;;31.85;21.35;;;2.10;99.90;;;;;;5069003;28;20050;-68
2022/03/03 07:33:18;;;;;;;30.48;21.13;;;2.10;99.90;;;;;;5068599;28;20058;-68
2022/03/03 07:35:47;;;;;;;29.65;20.40;;;2.10;99.90;;;;;;5070302;28;20040;-68
2022/03/03 07:38:15;;;;;;;29.05;20.73;;;2.20;99.90;;;;;;5070774;28;20084;-68
2022/03/03 07:40:42;;;;;;;30.13;20.20;;;2.20;99.90;;;;;;5070974;28;20203;-68
2022/03/03 07:43:10;;;;;;;31.77;20.52;;;2.20;99.90;;;;;;5068803;28;20055;-69
2022/03/03 07:45:36;;;;;;;27.60;21.05;;;2.30;99.90;;;;;;5066922;28;20082;-68
2022/03/03 07:48:01;;;;;;;30.95;20.88;;;2.30;99.90;;;;;;5054227;28;20048;-68
2022/03/03 07:50:28;;;;;;;28.00;20.52;;;2.40;99.90;;;;;;5068374;28;20410;-69
2022/03/03 07:52:54;;;;;;;28.10;21.02;;;2.40;99.90;;;;;;5070756;28;20041;-69
2022/03/03 07:55:21;;;;;;;26.05;20.35;;;2.50;99.90;;;;;;5070684;28;20157;-68
2022/03/03 07:57:58;;;;;;;28.25;19.73;;;2.50;99.90;;;;;;5069501;28;20125;-68
2022/03/03 08:00:27;;;;;;;31.10;20.80;;;2.60;99.90;;;;;;5070468;28;20048;-69
2022/03/03 08:02:55;;;;;;;26.23;19.02;;;2.60;99.90;;;;;;5069375;28;20044;-68
2022/03/03 08:05:22;;;;;;;27.85;18.52;;;2.60;99.90;;;;;;5070312;28;20044;-68
2022/03/03 08:07:53;;;;;;;27.02;19.67;;;2.70;99.90;;;;;;5069039;28;20055;-68
2022/03/03 08:10:19;;;;;;;27.83;19.85;;;2.70;99.90;;;;;;5070975;28;20064;-68
2022/03/03 08:12:46;;;;;;;25.23;18.50;;;2.80;99.90;;;;;;5074899;28;20039;-68
2022/03/03 08:15:12;;;;;;;31.42;20.27;;;2.90;99.90;;;;;;5070676;28;20402;-68
2022/03/03 08:17:38;;;;;;;28.80;18.73;;;2.90;99.90;;;;;;5073079;28;20044;-68
2022/03/03 08:20:06;;;;;;;27.85;18.73;;;2.90;99.90;;;;;;5102305;28;20040;-68
2022/03/03 08:22:33;;;;;;;26.10;17.20;;;3.00;99.90;;;;;;5102988;28;20081;-68
2022/03/03 08:24:59;;;;;;;28.67;17.75;;;3.10;99.90;;;;;;5062906;28;20048;-68
2022/03/03 08:27:26;;;;;;;24.60;18.48;;;3.20;99.90;;;;;;5071312;28;20052;-68
2022/03/03 08:29:53;;;;;;;26.23;18.77;;;3.20;99.90;;;;;;5068432;28;20078;-68
2022/03/03 08:32:21;;;;;;;23.08;17.23;;;3.30;99.90;;;;;;5068519;28;20036;-68
2022/03/03 08:34:53;;;;;;;25.77;19.13;;;3.30;99.90;;;;;;5067917;28;20067;-68
2022/03/03 08:37:28;;;;;;;24.98;17.88;;;3.30;99.90;;;;;;5095479;28;20040;-68
2022/03/03 08:39:57;;;;;;;24.02;18.00;;;3.40;99.90;;;;;;5065103;28;20052;-69
2022/03/03 08:42:26;;;;;;;25.20;17.63;;;3.40;99.90;;;;;;5064407;28;20634;-68
2022/03/03 08:44:55;;;;;;;23.20;18.40;;;3.50;99.90;;;;;;5059894;28;21277;-68
2022/03/03 08:47:22;;;;;;;22.27;16.98;;;3.50;99.90;;;;;;5064763;28;20053;-68
2022/03/03 08:49:58;;;;;;;22.27;17.17;;;3.50;99.90;;;;;;5065834;28;20036;-68
2022/03/03 08:52:24;;;;;;;;;;;3.60;99.90;;;;;;5066032;28;20123;-68
2022/03/03 08:54:49;;;;;;;25.30;16.25;;;3.80;99.90;;;;;;5065317;28;19920;-68
2022/03/03 08:57:15;;;;;;;22.85;17.50;;;3.80;99.90;;;;;;5063005;28;20407;-68
2022/03/03 08:59:41;;;;;;;25.60;17.40;;;3.90;99.90;;;;;;5063889;28;20068;-69
2022/03/03 09:02:06;;;;;;;23.30;16.73;;;4.00;99.90;;;;;;5064371;28;20811;-67
2022/03/03 09:04:32;;;;;;;24.35;16.95;;;4.10;99.90;;;;;;5064420;28;20645;-68
2022/03/03 09:06:58;;;;;;;20.83;16.58;;;4.20;99.90;;;;;;5062940;28;20048;-68
2022/03/03 09:09:23;;;;;;;24.65;17.83;;;4.30;99.90;;;;;;5063492;28;20047;-68
2022/03/03 09:11:49;;;;;;;21.13;16.70;;;4.30;99.90;;;;;;5061691;28;20028;-68
2022/03/03 09:14:15;;;;;;;23.65;17.23;;;4.40;99.90;;;;;;5065087;28;20036;-68
2022/03/03 09:16:41;;;;;;;21.90;17.65;;;4.50;99.90;;;;;;5064178;28;20032;-68
2022/03/03 09:19:07;;;;;;;24.40;16.00;;;4.60;99.90;;;;;;5064883;28;21028;-68
2022/03/03 09:21:33;;;;;;;22.83;17.00;;;4.70;99.90;;;;;;5061533;28;20040;-68
2022/03/03 09:23:58;;;;;;;22.42;17.10;;;4.80;99.90;;;;;;5063368;28;20056;-68
2022/03/03 09:26:24;;;;;;;22.00;14.77;;;5.00;99.90;;;;;;5062826;28;20403;-69
2022/03/03 09:28:49;;;;;;;21.17;15.10;;;5.10;99.90;;;;;;5063407;28;20048;-69
2022/03/03 09:31:15;;;;;;;25.85;16.67;;;5.30;99.90;;;;;;5062575;28;20415;-69
2022/03/03 09:33:41;;;;;;;17.70;14.70;;;5.40;99.90;;;;;;5059556;28;21411;-69
2022/03/03 09:36:07;;;;;;;20.33;15.90;;;5.50;99.90;;;;;;5046236;28;20152;-69
2022/03/03 09:38:32;;;;;;;20.20;14.68;;;5.70;99.90;;;;;;5066313;28;20036;-69
2022/03/03 09:40:58;;;;;;;21.42;15.63;;;5.80;98.60;;;;;;5061622;28;20036;-69
2022/03/03 09:43:25;;;;;;;18.10;13.82;;;5.80;98.70;;;;;;5063293;28;20952;-69
2022/03/03 09:45:51;;;;;;;18.02;13.82;;;6.00;96.60;;;;;;5066314;28;20033;-69
2022/03/03 09:48:17;;;;;;;15.98;12.68;;;6.20;96.40;;;;;;5064835;28;20035;-69
2022/03/03 09:50:43;;;;;;;17.80;13.55;;;6.20;93.30;;;;;;5064924;28;20109;-69
2022/03/03 09:53:11;;;;;;;15.20;12.40;;;6.20;92.70;;;;;;5063856;28;20536;-69
2022/03/03 09:55:38;;;;;;;18.83;13.80;;;6.30;91.70;;;;;;5096925;28;20032;-69
2022/03/03 09:58:06;;;;;;;19.40;14.68;;;6.40;91.90;;;;;;5067645;28;20036;-69
2022/03/03 10:00:36;;;;;;;17.35;13.75;;;6.40;90.00;;;;;;5064700;28;20062;-74
2022/03/03 10:03:14;;;;;;;15.00;12.45;;;6.40;86.70;;;;;;5065835;28;20403;-74
2022/03/03 10:05:47;;;;;;;19.25;13.35;;;6.30;85.90;;;;;;5097092;28;20062;-74
2022/03/03 10:08:18;;;;;;;17.77;11.80;;;6.40;84.00;;;;;;5066956;28;20374;-74
2022/03/03 10:10:50;;;;;;;16.10;12.82;;;6.50;83.70;;;;;;5066563;28;20082;-74
2022/03/03 10:13:19;;;;;;;17.27;13.85;;;6.40;83.30;;;;;;5064471;28;20044;-75
2022/03/03 10:15:49;;;;;;;15.45;13.85;;;6.50;80.90;;;;;;5064055;28;20139;-75
2022/03/03 10:18:16;;;;;;;15.65;11.98;;;6.50;81.10;;;;;;5094780;28;20063;-75
2022/03/03 10:20:54;;;;;;;16.40;12.68;;;6.60;82.20;;;;;;5066885;28;20041;-74
2022/03/03 10:23:28;;;;;;;17.10;13.38;;;6.70;83.00;;;;;;5064602;28;20435;-75
2022/03/03 10:25:56;;;;;;;17.67;13.43;;;6.70;79.10;;;;;;5062528;28;20459;-74
2022/03/03 10:28:25;;;;;;;20.15;13.27;;;6.80;80.90;;;;;;5065040;28;20119;-74
2022/03/03 10:31:02;;;;;;;15.75;12.77;;;6.70;78.70;;;;;;5059253;28;20094;-75
2022/03/03 10:33:33;;;;;;;19.45;13.43;;;6.80;78.50;;;;;;5066866;28;20064;-74
2022/03/03 10:36:02;;;;;;;16.55;13.95;;;6.80;80.10;;;;;;5063912;28;20048;-74
2022/03/03 10:38:29;;;;;;;17.52;14.30;;;6.90;79.80;;;;;;5064156;28;20608;-74
2022/03/03 10:40:55;;;;;;;22.17;13.68;;;7.10;79.90;;;;;;5063072;28;20474;-75
2022/03/03 10:43:20;;;;;;;17.80;13.98;;;7.20;83.80;;;;;;5064543;28;20072;-75
2022/03/03 10:45:58;;;;;;;16.38;13.27;;;7.30;81.30;;;;;;5066701;28;20071;-74
2022/03/03 10:48:25;;;;;;;16.42;13.15;;;7.50;82.60;;;;;;5065146;28;20036;-74
2022/03/03 10:50:54;;;;;;;17.65;13.63;;;7.60;79.00;;;;;;5065648;28;20024;-75
2022/03/03 10:53:22;;;;;;;17.38;12.93;;;7.60;79.50;;;;;;5065294;28;20045;-75
2022/03/03 10:56:07;;;;;;;17.90;12.95;;;7.60;77.10;;;;;;5059511;28;20794;-74
2022/03/03 10:58:46;;;;;;;18.55;13.98;;;7.70;78.20;;;;;;5064496;28;20491;-74
2022/03/03 11:01:13;;;;;;;16.30;13.23;;;7.80;79.90;;;;;;5090884;28;20052;-75
2022/03/03 11:03:40;;;;;;;18.52;14.88;;;7.80;77.80;;;;;;5065559;28;20036;-74
2022/03/03 11:06:07;;;;;;;15.65;13.40;;;7.90;80.50;;;;;;5067096;28;20071;-75
2022/03/03 11:08:34;;;;;;;16.92;13.30;;;7.90;76.80;;;;;;5094664;28;20040;-75
2022/03/03 11:11:01;;;;;;;14.27;11.90;;;8.10;80.90;;;;;;5062271;28;20029;-75
2022/03/03 11:13:27;;;;;;;14.10;12.32;;;8.20;75.80;;;;;;5063976;28;20040;-74
2022/03/03 11:15:54;;;;;;;15.85;12.95;;;8.30;77.80;;;;;;5064754;28;20044;-75
2022/03/03 11:18:20;;;;;;;15.27;12.00;;;8.40;78.20;;;;;;5063852;28;20551;-75
2022/03/03 11:20:46;;;;;;;16.50;11.70;;;8.40;74.80;;;;;;5064609;28;20056;-74
2022/03/03 11:23:12;;;;;;;13.43;11.23;;;8.30;74.20;;;;;;5062598;28;20135;-75
2022/03/03 11:25:38;;;;;;;13.43;11.18;;;8.50;76.00;;;;;;5065780;28;20120;-75
2022/03/03 11:28:14;;;;;;;13.32;11.88;;;8.60;72.10;;;;;;5061567;28;20036;-75
2022/03/03 11:30:43;;;;;;;13.20;10.45;;;8.60;70.90;;;;;;5066045;28;20509;-75
2022/03/03 11:33:30;;;;;;;13.85;11.55;;;8.70;70.60;;;;;;5066049;28;20025;-75
2022/03/03 11:36:03;;;;;;;13.50;11.32;;;8.90;75.50;;;;;;5095123;28;20116;-75
2022/03/03 11:38:51;;;;;;;11.57;10.25;;;9.00;76.90;;;;;;5067496;28;20035;-75
2022/03/03 11:41:17;;;;;;;11.43;9.45;;;9.10;76.50;;;;;;5063630;28;20053;-75
2022/03/03 11:43:58;;;;;;;13.57;10.70;;;9.10;73.10;;;;;;5065157;28;20086;-75
2022/03/03 11:46:46;;;;;;;15.13;9.60;;;9.20;73.50;;;;;;5066497;28;20535;-75
2022/03/03 11:49:25;;;;;;;11.23;9.10;;;9.20;72.50;;;;;;5065031;28;20029;-75
2022/03/03 11:51:56;;;;;;;12.80;10.20;;;9.30;72.10;;;;;;5063270;28;20045;-75
2022/03/03 11:54:31;;;;;;;10.82;9.30;;;9.30;71.10;;;;;;5062976;28;20040;-75
2022/03/03 11:57:21;;;;;;;10.82;9.27;;;9.30;68.50;;;;;;5095763;28;20041;-75
2022/03/03 11:59:47;;;;;;;13.27;9.85;;;9.40;71.30;;;;;;5064689;28;20394;-75
2022/03/03 12:02:18;;;;;;;14.27;9.18;;;9.60;70.20;;;;;;5064289;28;20383;-74
2022/03/03 12:04:44;;;;;;;11.45;9.45;;;9.70;74.30;;;;;;5067521;28;20044;-75
2022/03/03 12:07:30;;;;;;;12.77;9.55;;;9.70;71.00;;;;;;5067705;28;20094;-75
2022/03/03 12:09:56;;;;;;;13.70;10.48;;;9.70;71.80;;;;;;5065747;28;20755;-75
2022/03/03 12:12:27;;;;;;;14.23;10.35;;;9.90;77.20;;;;;;5073337;28;20093;-75
2022/03/03 12:14:59;;;;;;;13.65;10.75;;;9.80;73.10;;;;;;5096958;28;20131;-74
2022/03/03 12:17:38;;;;;;;13.38;10.27;;;9.90;74.90;;;;;;5069687;28;20037;-75
2022/03/03 12:20:35;;;;;;;13.18;9.68;;;9.90;74.90;;;;;;5065679;28;20055;-75
2022/03/03 12:23:18;;;;;;;10.65;8.93;;;9.80;69.30;;;;;;5070771;28;20045;-75
2022/03/03 12:25:50;;;;;;;10.25;8.90;;;9.80;72.00;;;;;;5064653;28;20056;-75
2022/03/03 12:28:37;;;;;;;11.30;9.32;;;9.90;71.70;;;;;;5068172;28;20053;-74
2022/03/03 12:31:19;;;;;;;14.57;10.05;;;9.80;70.90;;;;;;5063441;28;20072;-73
2022/03/03 12:34:01;;;;;;;12.75;10.27;;;9.80;67.70;;;;;;5071282;28;20483;-74
2022/03/03 12:36:31;;;;;;;12.20;10.90;;;9.90;72.60;;;;;;5071237;28;20037;-73
2022/03/03 12:38:57;;;;;;;13.30;10.95;;;10.00;73.00;;;;;;5068118;28;20483;-73
2022/03/03 12:41:28;;;;;;;13.13;10.75;;;9.90;69.10;;;;;;5069020;28;20048;-73